Airport ID:KO05
Update Time (UTC):21/05/2022 03:45
Wind Speed (Knots):5
Wind Direction (Magnetic):40
Temperature (°C):11
Dew Point (°C):-8
Humidity (%):24
Altimeter (inHg):29.96
Density Altitude (Feet):
Visibility:10+
Clouds (Hundreds of feet):CLR
Present Weather:
METAR:METAR KO05 210340Z AUTO 06005KT 10SM CLR 11/M08 A2996 RMK A01

The data displayed is for advisory purposes only and is not to be used for flight planning or operations.